Terminal Aerodrome Forecast
Issued by NWS Boston, MA

Home | Current Version | Previous Version | Text Only | Print | Product List | Glossary On
Versions: 1 2 3 4 5 6 7 8 9 10 11 12 13 14 15 16 17 18 19 20 21 22 23 24 25 26 27 28 29 30 31 32 33 34 35 36 37 38 39 40 41 42 43 44 45 46
000
FTUS41 KBOX 140530
TAFPVD
TAF
KPVD 140530Z 1406/1506 20010KT P6SM OVC015
     FM141300 22007KT P6SM BKN020 OVC035
     FM141600 20007KT P6SM OVC040
     FM141800 20007KT P6SM OVC025
     FM142100 18008KT P6SM OVC010
     FM150000 18007KT 4SM BR OVC003=

USA.gov is the U.S. government's official web portal to all federal, state and local government web resources and services.